sensor_id;sensor_type;location;lat;lon;timestamp;pressure;altitude;pressure_sealevel;temperature;humidity
7178;BME280;3630;42.146;24.756;2023-03-03T00:00:30;99797.66;;;7.65;91.18
7178;BME280;3630;42.146;24.756;2023-03-03T00:03:00;99790.00;;;7.65;91.40
7178;BME280;3630;42.146;24.756;2023-03-03T00:05:31;99780.88;;;7.73;91.21
7178;BME280;3630;42.146;24.756;2023-03-03T00:07:58;99781.00;;;7.78;90.80
7178;BME280;3630;42.146;24.756;2023-03-03T00:10:25;99769.84;;;7.75;90.23
7178;BME280;3630;42.146;24.756;2023-03-03T00:12:52;99769.84;;;7.75;90.48
7178;BME280;3630;42.146;24.756;2023-03-03T00:15:21;99763.84;;;7.74;90.14
7178;BME280;3630;42.146;24.756;2023-03-03T00:17:49;99750.53;;;7.57;90.59
7178;BME280;3630;42.146;24.756;2023-03-03T00:20:29;99757.72;;;7.69;90.53
7178;BME280;3630;42.146;24.756;2023-03-03T00:23:08;99741.31;;;7.62;90.03
7178;BME280;3630;42.146;24.756;2023-03-03T00:25:42;99739.00;;;7.70;90.19
7178;BME280;3630;42.146;24.756;2023-03-03T00:28:19;99744.31;;;7.76;89.87
7178;BME280;3630;42.146;24.756;2023-03-03T00:30:48;99735.06;;;7.81;89.84
7178;BME280;3630;42.146;24.756;2023-03-03T00:33:24;99731.63;;;7.79;89.46
7178;BME280;3630;42.146;24.756;2023-03-03T00:35:54;99703.66;;;7.58;89.41
7178;BME280;3630;42.146;24.756;2023-03-03T00:38:22;99729.00;;;7.78;89.10
7178;BME280;3630;42.146;24.756;2023-03-03T00:40:49;99728.88;;;7.73;88.76
7178;BME280;3630;42.146;24.756;2023-03-03T00:43:21;99722.06;;;7.73;89.02
7178;BME280;3630;42.146;24.756;2023-03-03T00:45:49;99721.09;;;7.70;88.77
7178;BME280;3630;42.146;24.756;2023-03-03T00:48:27;99715.84;;;7.65;88.25
7178;BME280;3630;42.146;24.756;2023-03-03T00:50:56;99708.97;;;7.64;88.14
7178;BME280;3630;42.146;24.756;2023-03-03T00:53:26;99712.88;;;7.53;88.73
7178;BME280;3630;42.146;24.756;2023-03-03T00:55:53;99706.22;;;7.58;89.40
7178;BME280;3630;42.146;24.756;2023-03-03T00:58:21;99703.88;;;7.64;88.78
7178;BME280;3630;42.146;24.756;2023-03-03T01:00:48;99700.63;;;7.70;88.23
7178;BME280;3630;42.146;24.756;2023-03-03T01:03:17;99701.53;;;7.72;87.06
7178;BME280;3630;42.146;24.756;2023-03-03T01:05:45;99679.84;;;7.59;87.52
7178;BME280;3630;42.146;24.756;2023-03-03T01:08:12;99701.72;;;7.78;87.83
7178;BME280;3630;42.146;24.756;2023-03-03T01:10:42;99682.50;;;7.62;87.21
7178;BME280;3630;42.146;24.756;2023-03-03T01:13:11;99700.84;;;7.78;87.75
7178;BME280;3630;42.146;24.756;2023-03-03T01:15:39;99704.34;;;7.80;87.53
7178;BME280;3630;42.146;24.756;2023-03-03T01:18:06;99701.78;;;7.80;87.29
7178;BME280;3630;42.146;24.756;2023-03-03T01:20:33;99694.94;;;7.79;87.43
7178;BME280;3630;42.146;24.756;2023-03-03T01:23:00;99696.63;;;7.78;87.20
7178;BME280;3630;42.146;24.756;2023-03-03T01:25:27;99701.88;;;7.83;87.41
7178;BME280;3630;42.146;24.756;2023-03-03T01:27:55;99688.16;;;7.81;86.72
7178;BME280;3630;42.146;24.756;2023-03-03T01:30:23;99686.25;;;7.73;86.80
7178;BME280;3630;42.146;24.756;2023-03-03T01:32:50;99696.63;;;7.78;87.16
7178;BME280;3630;42.146;24.756;2023-03-03T01:35:18;99698.31;;;7.78;87.45
7178;BME280;3630;42.146;24.756;2023-03-03T01:37:44;99698.94;;;7.70;87.84
7178;BME280;3630;42.146;24.756;2023-03-03T01:40:15;99692.16;;;7.71;87.83
7178;BME280;3630;42.146;24.756;2023-03-03T01:42:42;99700.78;;;7.75;87.88
7178;BME280;3630;42.146;24.756;2023-03-03T01:45:16;99698.31;;;7.78;87.91
7178;BME280;3630;42.146;24.756;2023-03-03T01:47:47;99690.69;;;7.79;87.67
7178;BME280;3630;42.146;24.756;2023-03-03T01:50:24;99690.63;;;7.78;87.42
7178;BME280;3630;42.146;24.756;2023-03-03T01:52:53;99694.06;;;7.78;87.54
7178;BME280;3630;42.146;24.756;2023-03-03T01:55:23;99669.72;;;7.62;87.94
7178;BME280;3630;42.146;24.756;2023-03-03T01:57:56;99681.94;;;7.72;87.97
7178;BME280;3630;42.146;24.756;2023-03-03T02:00:26;99670.03;;;7.73;88.33
7178;BME280;3630;42.146;24.756;2023-03-03T02:02:53;99685.50;;;7.78;87.83
7178;BME280;3630;42.146;24.756;2023-03-03T02:05:21;99683.16;;;7.84;87.92
7178;BME280;3630;42.146;24.756;2023-03-03T02:07:48;99681.47;;;7.84;87.40
7178;BME280;3630;42.146;24.756;2023-03-03T02:10:17;99680.78;;;7.90;87.38
7178;BME280;3630;42.146;24.756;2023-03-03T02:12:48;99677.22;;;7.85;86.75
7178;BME280;3630;42.146;24.756;2023-03-03T02:15:17;99672.03;;;7.83;86.91
7178;BME280;3630;42.146;24.756;2023-03-03T02:17:47;99678.94;;;7.86;86.33
7178;BME280;3630;42.146;24.756;2023-03-03T02:20:19;99671.25;;;7.86;86.72
7178;BME280;3630;42.146;24.756;2023-03-03T02:22:52;99668.63;;;7.83;86.67
7178;BME280;3630;42.146;24.756;2023-03-03T02:25:28;99674.66;;;7.85;86.63
7178;BME280;3630;42.146;24.756;2023-03-03T02:27:59;99671.03;;;7.78;86.62
7178;BME280;3630;42.146;24.756;2023-03-03T02:30:27;99676.22;;;7.80;87.38
7178;BME280;3630;42.146;24.756;2023-03-03T02:32:54;99671.81;;;7.76;87.31
7178;BME280;3630;42.146;24.756;2023-03-03T02:35:27;99675.97;;;7.72;87.72
7178;BME280;3630;42.146;24.756;2023-03-03T02:37:56;99671.03;;;7.78;87.54
7178;BME280;3630;42.146;24.756;2023-03-03T02:40:27;99667.16;;;7.62;88.40
7178;BME280;3630;42.146;24.756;2023-03-03T02:42:58;99657.50;;;7.52;88.28
7178;BME280;3630;42.146;24.756;2023-03-03T02:45:27;99665.88;;;7.48;88.90
7178;BME280;3630;42.146;24.756;2023-03-03T02:47:54;99669.09;;;7.43;89.34
7178;BME280;3630;42.146;24.756;2023-03-03T02:50:21;99667.28;;;7.39;89.74
7178;BME280;3630;42.146;24.756;2023-03-03T02:52:48;99667.03;;;7.31;91.59
7178;BME280;3630;42.146;24.756;2023-03-03T02:55:15;99673.31;;;7.14;93.20
7178;BME280;3630;42.146;24.756;2023-03-03T02:57:42;99674.66;;;7.04;93.53
7178;BME280;3630;42.146;24.756;2023-03-03T03:00:11;99671.03;;;6.98;94.96
7178;BME280;3630;42.146;24.756;2023-03-03T03:02:38;99674.34;;;6.95;95.65
7178;BME280;3630;42.146;24.756;2023-03-03T03:05:05;99670.97;;;6.95;95.82
7178;BME280;3630;42.146;24.756;2023-03-03T03:07:33;99671.66;;;6.91;96.58
7178;BME280;3630;42.146;24.756;2023-03-03T03:10:00;99675.03;;;6.90;96.78
7178;BME280;3630;42.146;24.756;2023-03-03T03:12:26;99663.91;;;6.88;97.30
7178;BME280;3630;42.146;24.756;2023-03-03T03:14:53;99668.25;;;6.90;97.89
7178;BME280;3630;42.146;24.756;2023-03-03T03:17:21;99667.47;;;6.93;98.07
7178;BME280;3630;42.146;24.756;2023-03-03T03:19:48;99658.56;;;6.82;98.02
7178;BME280;3630;42.146;24.756;2023-03-03T03:22:15;99661.47;;;6.92;98.47
7178;BME280;3630;42.146;24.756;2023-03-03T03:24:41;99661.47;;;6.92;98.68
7178;BME280;3630;42.146;24.756;2023-03-03T03:27:09;99658.22;;;6.96;98.68
7178;BME280;3630;42.146;24.756;2023-03-03T03:29:35;99630.66;;;6.86;98.50
7178;BME280;3630;42.146;24.756;2023-03-03T03:32:02;99662.72;;;7.03;97.90
7178;BME280;3630;42.146;24.756;2023-03-03T03:34:30;99657.75;;;7.08;97.59
7178;BME280;3630;42.146;24.756;2023-03-03T03:36:57;99657.91;;;7.12;97.03
7178;BME280;3630;42.146;24.756;2023-03-03T03:39:24;99657.91;;;7.12;96.19
7178;BME280;3630;42.146;24.756;2023-03-03T03:41:51;99661.25;;;7.11;95.92
7178;BME280;3630;42.146;24.756;2023-03-03T03:44:18;99647.38;;;7.03;96.58
7178;BME280;3630;42.146;24.756;2023-03-03T03:46:45;99661.94;;;7.06;96.56
7178;BME280;3630;42.146;24.756;2023-03-03T03:49:12;99662.81;;;7.06;96.09
7178;BME280;3630;42.146;24.756;2023-03-03T03:51:40;99659.38;;;7.06;96.23
7178;BME280;3630;42.146;24.756;2023-03-03T03:54:07;99656.03;;;7.07;96.04
7178;BME280;3630;42.146;24.756;2023-03-03T03:56:34;99665.63;;;7.14;96.09
7178;BME280;3630;42.146;24.756;2023-03-03T03:59:00;99648.47;;;7.10;95.89
7178;BME280;3630;42.146;24.756;2023-03-03T04:01:27;99652.88;;;7.14;96.20
7178;BME280;3630;42.146;24.756;2023-03-03T04:03:54;99663.41;;;7.25;95.74
7178;BME280;3630;42.146;24.756;2023-03-03T04:06:21;99653.88;;;7.19;95.84
7178;BME280;3630;42.146;24.756;2023-03-03T04:08:49;99659.78;;;7.18;96.45
7178;BME280;3630;42.146;24.756;2023-03-03T04:11:16;99657.66;;;7.05;96.25
7178;BME280;3630;42.146;24.756;2023-03-03T04:13:42;99655.34;;;7.12;96.70
7178;BME280;3630;42.146;24.756;2023-03-03T04:16:09;99659.25;;;7.01;96.79
7178;BME280;3630;42.146;24.756;2023-03-03T04:18:36;99655.91;;;7.04;96.61
7178;BME280;3630;42.146;24.756;2023-03-03T04:21:03;99648.78;;;6.94;97.13
7178;BME280;3630;42.146;24.756;2023-03-03T04:23:30;99654.88;;;6.97;97.52
7178;BME280;3630;42.146;24.756;2023-03-03T04:25:58;99641.72;;;6.87;97.53
7178;BME280;3630;42.146;24.756;2023-03-03T04:28:25;99656.22;;;6.88;97.79
7178;BME280;3630;42.146;24.756;2023-03-03T04:30:52;99657.16;;;6.90;98.80
7178;BME280;3630;42.146;24.756;2023-03-03T04:33:18;99644.34;;;6.88;98.28
7178;BME280;3630;42.146;24.756;2023-03-03T04:35:45;99656.47;;;6.95;98.04
7178;BME280;3630;42.146;24.756;2023-03-03T04:38:12;99654.03;;;6.98;97.80
7178;BME280;3630;42.146;24.756;2023-03-03T04:40:40;99657.34;;;6.96;97.58
7178;BME280;3630;42.146;24.756;2023-03-03T04:43:09;99650.97;;;6.83;97.45
7178;BME280;3630;42.146;24.756;2023-03-03T04:45:36;99646.75;;;6.84;97.86
7178;BME280;3630;42.146;24.756;2023-03-03T04:48:04;99647.44;;;6.80;97.12
7178;BME280;3630;42.146;24.756;2023-03-03T04:50:30;99653.38;;;6.79;97.10
7178;BME280;3630;42.146;24.756;2023-03-03T04:52:57;99649.03;;;6.76;97.43
7178;BME280;3630;42.146;24.756;2023-03-03T04:55:24;99647.13;;;6.71;97.51
7178;BME280;3630;42.146;24.756;2023-03-03T04:57:51;99649.75;;;6.72;97.85
7178;BME280;3630;42.146;24.756;2023-03-03T05:00:20;99651.13;;;6.63;98.79
7178;BME280;3630;42.146;24.756;2023-03-03T05:02:47;99648.63;;;6.64;98.84
7178;BME280;3630;42.146;24.756;2023-03-03T05:05:14;99622.34;;;6.43;99.14
7178;BME280;3630;42.146;24.756;2023-03-03T05:07:41;99649.44;;;6.63;99.52
7178;BME280;3630;42.146;24.756;2023-03-03T05:10:08;99655.63;;;6.70;99.50
7178;BME280;3630;42.146;24.756;2023-03-03T05:12:35;99659.00;;;6.69;98.75
7178;BME280;3630;42.146;24.756;2023-03-03T05:15:03;99652.44;;;6.77;99.23
7178;BME280;3630;42.146;24.756;2023-03-03T05:17:31;99659.25;;;6.76;99.06
7178;BME280;3630;42.146;24.756;2023-03-03T05:19:58;99662.63;;;6.75;98.55
7178;BME280;3630;42.146;24.756;2023-03-03T05:22:25;99665.31;;;6.80;98.42
7178;BME280;3630;42.146;24.756;2023-03-03T05:24:51;99662.81;;;6.81;97.94
7178;BME280;3630;42.146;24.756;2023-03-03T05:27:18;99659.66;;;6.88;98.04
7178;BME280;3630;42.146;24.756;2023-03-03T05:29:45;99664.00;;;6.91;97.74
7178;BME280;3630;42.146;24.756;2023-03-03T05:32:12;99659.00;;;6.94;97.19
7178;BME280;3630;42.146;24.756;2023-03-03T05:34:40;99662.25;;;6.90;97.26
7178;BME280;3630;42.146;24.756;2023-03-03T05:37:07;99668.56;;;6.99;96.72
7178;BME280;3630;42.146;24.756;2023-03-03T05:39:35;99661.09;;;7.05;96.25
7178;BME280;3630;42.146;24.756;2023-03-03T05:42:02;99668.03;;;7.09;95.28
7178;BME280;3630;42.146;24.756;2023-03-03T05:44:29;99663.25;;;7.20;94.80
7178;BME280;3630;42.146;24.756;2023-03-03T05:46:55;99661.81;;;7.28;93.78
7178;BME280;3630;42.146;24.756;2023-03-03T05:49:23;99665.97;;;7.25;92.73
7178;BME280;3630;42.146;24.756;2023-03-03T05:51:51;99676.66;;;7.13;92.20
7178;BME280;3630;42.146;24.756;2023-03-03T05:54:18;99665.00;;;7.21;92.14
7178;BME280;3630;42.146;24.756;2023-03-03T05:56:47;99669.31;;;7.22;91.97
7178;BME280;3630;42.146;24.756;2023-03-03T05:59:14;99673.00;;;7.32;90.71
7178;BME280;3630;42.146;24.756;2023-03-03T06:01:40;99671.22;;;7.29;90.57
7178;BME280;3630;42.146;24.756;2023-03-03T06:04:07;99672.13;;;7.31;90.53
7178;BME280;3630;42.146;24.756;2023-03-03T06:06:34;99680.91;;;7.39;89.54
7178;BME280;3630;42.146;24.756;2023-03-03T06:09:03;99677.44;;;7.37;89.56
7178;BME280;3630;42.146;24.756;2023-03-03T06:11:30;99669.84;;;7.39;89.16
7178;BME280;3630;42.146;24.756;2023-03-03T06:13:57;99679.28;;;7.41;89.01
7178;BME280;3630;42.146;24.756;2023-03-03T06:16:24;99675.31;;;7.51;89.25
7178;BME280;3630;42.146;24.756;2023-03-03T06:18:51;99683.06;;;7.52;88.09
7178;BME280;3630;42.146;24.756;2023-03-03T06:21:18;99683.97;;;7.54;87.48
7178;BME280;3630;42.146;24.756;2023-03-03T06:23:45;99677.16;;;7.55;87.61
7178;BME280;3630;42.146;24.756;2023-03-03T06:26:13;99690.72;;;7.52;87.38
7178;BME280;3630;42.146;24.756;2023-03-03T06:28:40;99690.47;;;7.45;86.94
7178;BME280;3630;42.146;24.756;2023-03-03T06:31:06;99686.22;;;7.45;87.48
7178;BME280;3630;42.146;24.756;2023-03-03T06:33:33;99690.66;;;7.51;87.93
7178;BME280;3630;42.146;24.756;2023-03-03T06:36:00;99691.44;;;7.48;88.06
7178;BME280;3630;42.146;24.756;2023-03-03T06:38:27;99685.59;;;7.52;88.23
7178;BME280;3630;42.146;24.756;2023-03-03T06:40:53;99691.84;;;7.62;87.69
7178;BME280;3630;42.146;24.756;2023-03-03T06:43:22;99683.22;;;7.58;87.46
7178;BME280;3630;42.146;24.756;2023-03-03T06:45:48;99684.50;;;7.72;87.54
7178;BME280;3630;42.146;24.756;2023-03-03T06:48:15;99683.13;;;7.82;86.97
7178;BME280;3630;42.146;24.756;2023-03-03T06:50:42;99690.81;;;7.84;86.14
7178;BME280;3630;42.146;24.756;2023-03-03T06:53:11;99692.66;;;7.88;86.20
7178;BME280;3630;42.146;24.756;2023-03-03T06:55:39;99689.25;;;7.89;85.94
7178;BME280;3630;42.146;24.756;2023-03-03T06:58:11;99697.97;;;7.94;86.06
7178;BME280;3630;42.146;24.756;2023-03-03T07:00:41;99688.53;;;7.93;86.42
7178;BME280;3630;42.146;24.756;2023-03-03T07:03:14;99688.13;;;8.07;86.72
7178;BME280;3630;42.146;24.756;2023-03-03T07:05:41;99685.03;;;8.19;86.47
7178;BME280;3630;42.146;24.756;2023-03-03T07:08:12;99680.94;;;8.24;85.92
7178;BME280;3630;42.146;24.756;2023-03-03T07:10:40;99686.34;;;8.33;84.98
7178;BME280;3630;42.146;24.756;2023-03-03T07:13:17;99685.28;;;8.26;85.05
7178;BME280;3630;42.146;24.756;2023-03-03T07:15:46;99691.78;;;8.15;85.12
7178;BME280;3630;42.146;24.756;2023-03-03T07:18:24;99691.13;;;8.22;84.88
7178;BME280;3630;42.146;24.756;2023-03-03T07:20:54;99691.03;;;8.19;84.92
7178;BME280;3630;42.146;24.756;2023-03-03T07:23:23;99688.00;;;8.31;85.56
7178;BME280;3630;42.146;24.756;2023-03-03T07:25:50;99684.66;;;8.34;84.75
7178;BME280;3630;42.146;24.756;2023-03-03T07:28:22;99686.63;;;8.44;83.66
7178;BME280;3630;42.146;24.756;2023-03-03T07:30:51;99689.47;;;8.54;82.93
7178;BME280;3630;42.146;24.756;2023-03-03T07:33:23;99689.81;;;8.66;82.83
7178;BME280;3630;42.146;24.756;2023-03-03T07:35:51;99680.63;;;8.73;82.40
7178;BME280;3630;42.146;24.756;2023-03-03T07:38:30;99685.16;;;8.84;80.93
7178;BME280;3630;42.146;24.756;2023-03-03T07:41:01;99684.47;;;8.90;79.93
7178;BME280;3630;42.146;24.756;2023-03-03T07:43:33;99681.94;;;8.92;79.60
7178;BME280;3630;42.146;24.756;2023-03-03T07:46:19;99680.22;;;8.90;79.03
7178;BME280;3630;42.146;24.756;2023-03-03T07:48:47;99683.88;;;9.00;78.79
7178;BME280;3630;42.146;24.756;2023-03-03T07:51:18;99676.22;;;9.02;79.25
7178;BME280;3630;42.146;24.756;2023-03-03T07:53:47;99675.41;;;9.03;78.91
7178;BME280;3630;42.146;24.756;2023-03-03T07:56:23;99684.22;;;9.14;78.85
7178;BME280;3630;42.146;24.756;2023-03-03T07:58:53;99671.41;;;9.14;78.69
7178;BME280;3630;42.146;24.756;2023-03-03T08:01:43;99681.03;;;9.22;78.73
7178;BME280;3630;42.146;24.756;2023-03-03T08:04:19;99679.34;;;9.23;79.35
7178;BME280;3630;42.146;24.756;2023-03-03T08:06:51;99645.66;;;9.09;79.17
7178;BME280;3630;42.146;24.756;2023-03-03T08:09:40;99667.41;;;9.25;79.93
7178;BME280;3630;42.146;24.756;2023-03-03T08:12:33;99645.63;;;9.08;79.07
7178;BME280;3630;42.146;24.756;2023-03-03T08:15:15;99653.81;;;9.29;78.55
7178;BME280;3630;42.146;24.756;2023-03-03T08:17:46;99670.38;;;9.41;77.81
7178;BME280;3630;42.146;24.756;2023-03-03T08:20:38;99660.00;;;9.37;78.82
7178;BME280;3630;42.146;24.756;2023-03-03T08:23:07;99662.47;;;9.32;78.40
7178;BME280;3630;42.146;24.756;2023-03-03T08:25:34;99657.25;;;9.29;78.74
7178;BME280;3630;42.146;24.756;2023-03-03T08:28:01;99660.44;;;9.19;78.16
7178;BME280;3630;42.146;24.756;2023-03-03T08:30:28;99657.81;;;9.16;78.58
7178;BME280;3630;42.146;24.756;2023-03-03T08:32:56;99649.94;;;9.09;78.60
7178;BME280;3630;42.146;24.756;2023-03-03T08:35:23;99651.22;;;8.93;79.10
7178;BME280;3630;42.146;24.756;2023-03-03T08:37:50;99642.72;;;8.94;79.55
7178;BME280;3630;42.146;24.756;2023-03-03T08:40:17;99636.00;;;8.98;80.43
7178;BME280;3630;42.146;24.756;2023-03-03T08:42:44;99636.16;;;9.04;80.76
7178;BME280;3630;42.146;24.756;2023-03-03T08:45:10;99634.47;;;9.06;81.30
7178;BME280;3630;42.146;24.756;2023-03-03T08:47:40;99630.41;;;9.14;81.11
7178;BME280;3630;42.146;24.756;2023-03-03T08:50:11;99622.75;;;9.15;80.90
7178;BME280;3630;42.146;24.756;2023-03-03T08:52:39;99635.81;;;9.26;81.59
7178;BME280;3630;42.146;24.756;2023-03-03T08:55:06;99629.13;;;9.32;82.05
7178;BME280;3630;42.146;24.756;2023-03-03T08:57:33;99630.97;;;9.38;81.86
7178;BME280;3630;42.146;24.756;2023-03-03T09:00:00;99628.44;;;9.39;81.90
7178;BME280;3630;42.146;24.756;2023-03-03T09:02:27;99638.75;;;9.41;81.44
7178;BME280;3630;42.146;24.756;2023-03-03T09:04:54;99627.69;;;9.43;82.22
7178;BME280;3630;42.146;24.756;2023-03-03T09:07:22;99629.31;;;9.40;81.20
7178;BME280;3630;42.146;24.756;2023-03-03T09:09:49;99634.47;;;9.41;81.48
7178;BME280;3630;42.146;24.756;2023-03-03T09:12:17;99635.31;;;9.40;81.80
7178;BME280;3630;42.146;24.756;2023-03-03T09:14:45;99631.03;;;9.41;82.13
7178;BME280;3630;42.146;24.756;2023-03-03T09:17:23;99626.66;;;9.35;81.35
7178;BME280;3630;42.146;24.756;2023-03-03T09:19:50;99626.81;;;9.43;82.88
7178;BME280;3630;42.146;24.756;2023-03-03T09:22:19;99628.72;;;9.52;83.76
7178;BME280;3630;42.146;24.756;2023-03-03T09:24:49;99616.75;;;9.52;81.83
7178;BME280;3630;42.146;24.756;2023-03-03T09:27:27;99623.13;;;9.69;82.85
7178;BME280;3630;42.146;24.756;2023-03-03T09:29:55;99619.78;;;9.73;83.49
7178;BME280;3630;42.146;24.756;2023-03-03T09:32:30;99618.31;;;9.83;82.36
7178;BME280;3630;42.146;24.756;2023-03-03T09:34:59;99624.38;;;9.88;81.24
7178;BME280;3630;42.146;24.756;2023-03-03T09:37:29;99616.56;;;9.83;81.22
7178;BME280;3630;42.146;24.756;2023-03-03T09:40:00;99602.72;;;9.75;79.94
7178;BME280;3630;42.146;24.756;2023-03-03T09:42:46;99611.16;;;9.70;78.94
7178;BME280;3630;42.146;24.756;2023-03-03T09:45:34;99610.44;;;9.36;76.91
7178;BME280;3630;42.146;24.756;2023-03-03T09:48:20;99614.84;;;9.42;78.64
7178;BME280;3630;42.146;24.756;2023-03-03T09:50:58;99614.03;;;9.44;79.75
7178;BME280;3630;42.146;24.756;2023-03-03T09:53:38;99609.91;;;9.51;80.21
7178;BME280;3630;42.146;24.756;2023-03-03T09:56:14;99613.41;;;9.56;80.94
7178;BME280;3630;42.146;24.756;2023-03-03T09:58:52;99608.19;;;9.50;79.14
7178;BME280;3630;42.146;24.756;2023-03-03T10:01:34;99607.31;;;9.49;79.28
7178;BME280;3630;42.146;24.756;2023-03-03T10:04:35;99605.63;;;9.52;80.12
7178;BME280;3630;42.146;24.756;2023-03-03T10:07:20;99604.69;;;9.48;81.13
7178;BME280;3630;42.146;24.756;2023-03-03T10:10:20;99611.28;;;9.37;81.32
7178;BME280;3630;42.146;24.756;2023-03-03T10:13:01;99607.00;;;9.36;81.81
7178;BME280;3630;42.146;24.756;2023-03-03T10:15:38;99610.16;;;9.26;82.13
7178;BME280;3630;42.146;24.756;2023-03-03T10:18:20;99545.81;;;8.78;81.12
7178;BME280;3630;42.146;24.756;2023-03-03T10:21:01;99610.72;;;9.13;82.04
7178;BME280;3630;42.146;24.756;2023-03-03T10:23:45;99605.59;;;9.13;81.02
7178;BME280;3630;42.146;24.756;2023-03-03T10:26:25;99601.31;;;9.12;80.69
7178;BME280;3630;42.146;24.756;2023-03-03T10:29:10;99600.28;;;9.05;80.61
7178;BME280;3630;42.146;24.756;2023-03-03T10:34:49;99596.03;;;9.06;80.63
7178;BME280;3630;42.146;24.756;2023-03-03T10:37:23;99592.69;;;9.08;80.78
7178;BME280;3630;42.146;24.756;2023-03-03T10:40:02;99584.19;;;9.11;80.06
7178;BME280;3630;42.146;24.756;2023-03-03T10:42:59;99588.53;;;9.13;79.75
7178;BME280;3630;42.146;24.756;2023-03-03T10:48:49;99582.56;;;9.14;79.57
7178;BME280;3630;42.146;24.756;2023-03-03T10:51:26;99575.94;;;9.24;78.88
7178;BME280;3630;42.146;24.756;2023-03-03T10:54:11;99576.00;;;9.27;78.17
7178;BME280;3630;42.146;24.756;2023-03-03T10:56:49;99573.44;;;9.27;78.38
7178;BME280;3630;42.146;24.756;2023-03-03T10:59:33;99562.38;;;9.28;78.36
7178;BME280;3630;42.146;24.756;2023-03-03T11:02:09;99553.84;;;9.29;79.36
7178;BME280;3630;42.146;24.756;2023-03-03T11:05:05;99560.50;;;9.21;79.17
7178;BME280;3630;42.146;24.756;2023-03-03T11:07:40;99557.25;;;9.28;79.21
7178;BME280;3630;42.146;24.756;2023-03-03T11:10:29;99548.03;;;9.37;78.12
7178;BME280;3630;42.146;24.756;2023-03-03T11:13:08;99546.16;;;9.29;77.70
7178;BME280;3630;42.146;24.756;2023-03-03T11:15:46;99546.19;;;9.30;78.68
7178;BME280;3630;42.146;24.756;2023-03-03T11:18:31;99548.03;;;9.37;79.06
7178;BME280;3630;42.146;24.756;2023-03-03T11:21:06;99532.88;;;9.46;79.18
7178;BME280;3630;42.146;24.756;2023-03-03T11:23:54;99544.88;;;9.49;77.95
7178;BME280;3630;42.146;24.756;2023-03-03T11:26:38;99530.22;;;9.42;77.78
7178;BME280;3630;42.146;24.756;2023-03-03T11:29:17;99538.97;;;9.52;78.00
7178;BME280;3630;42.146;24.756;2023-03-03T11:31:54;99541.00;;;9.68;77.70
7178;BME280;3630;42.146;24.756;2023-03-03T11:34:39;99531.47;;;9.62;77.04
7178;BME280;3630;42.146;24.756;2023-03-03T11:37:13;99524.94;;;9.36;78.45
7178;BME280;3630;42.146;24.756;2023-03-03T11:39:43;99528.75;;;9.55;77.52
7178;BME280;3630;42.146;24.756;2023-03-03T11:42:15;99534.09;;;9.65;77.13
7178;BME280;3630;42.146;24.756;2023-03-03T11:44:46;99526.13;;;9.52;77.98
7178;BME280;3630;42.146;24.756;2023-03-03T11:47:18;99521.34;;;9.67;76.87
7178;BME280;3630;42.146;24.756;2023-03-03T11:49:52;99494.06;;;9.72;77.33
7178;BME280;3630;42.146;24.756;2023-03-03T11:52:29;99508.31;;;10.01;76.29
7178;BME280;3630;42.146;24.756;2023-03-03T11:55:01;99512.84;;;10.14;74.61
7178;BME280;3630;42.146;24.756;2023-03-03T11:57:34;99506.94;;;10.18;74.89
7178;BME280;3630;42.146;24.756;2023-03-03T12:00:14;99504.56;;;10.29;75.03
7178;BME280;3630;42.146;24.756;2023-03-03T12:05:48;99504.13;;;10.54;73.73
7178;BME280;3630;42.146;24.756;2023-03-03T12:08:26;99501.69;;;10.60;72.70
7178;BME280;3630;42.146;24.756;2023-03-03T12:11:00;99497.38;;;10.59;72.64
7178;BME280;3630;42.146;24.756;2023-03-03T12:13:38;99493.00;;;10.53;73.37
7178;BME280;3630;42.146;24.756;2023-03-03T12:16:12;99470.69;;;10.52;73.10
7178;BME280;3630;42.146;24.756;2023-03-03T12:18:54;99498.72;;;10.91;72.20
7178;BME280;3630;42.146;24.756;2023-03-03T12:21:43;99492.03;;;11.01;71.35
7178;BME280;3630;42.146;24.756;2023-03-03T12:24:20;99489.22;;;10.86;70.99
7178;BME280;3630;42.146;24.756;2023-03-03T12:26:57;99479.94;;;10.97;71.38
7178;BME280;3630;42.146;24.756;2023-03-03T12:29:34;99478.41;;;10.51;72.12
7178;BME280;3630;42.146;24.756;2023-03-03T12:32:15;99479.22;;;10.48;73.70
7178;BME280;3630;42.146;24.756;2023-03-03T12:34:50;99483.41;;;10.43;73.88
7178;BME280;3630;42.146;24.756;2023-03-03T12:37:40;99478.13;;;10.36;74.22
7178;BME280;3630;42.146;24.756;2023-03-03T12:40:16;99486.13;;;10.52;72.62
7178;BME280;3630;42.146;24.756;2023-03-03T12:42:57;99485.06;;;10.40;71.81
7178;BME280;3630;42.146;24.756;2023-03-03T12:45:36;99481.56;;;10.35;71.97
7178;BME280;3630;42.146;24.756;2023-03-03T12:48:08;99490.84;;;10.27;71.45
7178;BME280;3630;42.146;24.756;2023-03-03T12:50:45;99479.63;;;10.23;72.46
7178;BME280;3630;42.146;24.756;2023-03-03T12:53:27;99472.00;;;10.26;72.27
7178;BME280;3630;42.146;24.756;2023-03-03T12:56:02;99481.69;;;10.44;72.41
7178;BME280;3630;42.146;24.756;2023-03-03T12:58:37;99486.13;;;10.52;72.18
7178;BME280;3630;42.146;24.756;2023-03-03T13:01:16;99479.13;;;10.42;72.21
7178;BME280;3630;42.146;24.756;2023-03-03T13:03:52;99478.22;;;10.40;71.90
7178;BME280;3630;42.146;24.756;2023-03-03T13:06:27;99478.13;;;10.36;72.14
7178;BME280;3630;42.146;24.756;2023-03-03T13:09:11;99474.63;;;10.31;73.02
7178;BME280;3630;42.146;24.756;2023-03-03T13:11:54;99453.19;;;10.27;73.35
7178;BME280;3630;42.146;24.756;2023-03-03T13:14:32;99475.59;;;10.37;73.26
7178;BME280;3630;42.146;24.756;2023-03-03T13:17:08;99474.63;;;10.29;72.81
7178;BME280;3630;42.146;24.756;2023-03-03T13:19:44;99468.59;;;10.29;73.67
7178;BME280;3630;42.146;24.756;2023-03-03T13:22:15;99470.34;;;10.30;73.78
7178;BME280;3630;42.146;24.756;2023-03-03T13:24:54;99477.28;;;10.35;73.63
7178;BME280;3630;42.146;24.756;2023-03-03T13:27:26;99479.94;;;10.40;73.65
7178;BME280;3630;42.146;24.756;2023-03-03T13:29:59;99467.91;;;10.37;73.08
7178;BME280;3630;42.146;24.756;2023-03-03T13:32:34;99468.78;;;10.39;72.39
7178;BME280;3630;42.146;24.756;2023-03-03T13:35:06;99459.34;;;10.37;71.95
7178;BME280;3630;42.146;24.756;2023-03-03T13:37:36;99468.84;;;10.42;72.83
7178;BME280;3630;42.146;24.756;2023-03-03T13:40:15;99472.22;;;10.41;72.41
7178;BME280;3630;42.146;24.756;2023-03-03T13:42:45;99423.91;;;10.16;72.93
7178;BME280;3630;42.146;24.756;2023-03-03T13:45:17;99460.09;;;10.31;71.85
7178;BME280;3630;42.146;24.756;2023-03-03T13:47:54;99458.44;;;10.35;72.35
7178;BME280;3630;42.146;24.756;2023-03-03T13:50:30;99455.94;;;10.39;72.42
7178;BME280;3630;42.146;24.756;2023-03-03T13:53:14;99459.34;;;10.37;72.38